createdAt,value
2023-02-12T00:03:52.784Z,5.61
2023-02-12T00:07:45.888Z,5.55
2023-02-12T00:11:55.726Z,5.50
2023-02-12T00:15:47.244Z,5.48
2023-02-12T00:19:36.825Z,5.44
2023-02-12T00:23:46.430Z,5.14
2023-02-12T00:27:58.381Z,4.99
2023-02-12T00:32:15.070Z,4.97
2023-02-12T00:36:43.992Z,4.91
2023-02-12T00:40:53.944Z,4.88
2023-02-12T00:45:03.275Z,4.89
2023-02-12T00:49:16.692Z,5.09
2023-02-12T00:53:08.002Z,5.03
2023-02-12T00:57:25.378Z,4.99
2023-02-12T01:01:15.518Z,5.01
2023-02-12T01:05:28.792Z,5.02
2023-02-12T01:09:37.331Z,5.10
2023-02-12T01:13:31.086Z,5.20
2023-02-12T01:18:00.410Z,5.30
2023-02-12T01:22:10.971Z,5.45
2023-02-12T01:26:28.517Z,5.64
2023-02-12T01:30:28.137Z,5.72
2023-02-12T01:34:22.912Z,5.43
2023-02-12T01:38:12.872Z,5.34
2023-02-12T01:42:24.094Z,5.34
2023-02-12T01:46:18.637Z,5.39
2023-02-12T01:50:32.661Z,5.48
2023-02-12T01:54:46.596Z,5.43
2023-02-12T01:58:37.480Z,5.45
2023-02-12T02:02:46.316Z,5.53
2023-02-12T02:06:51.492Z,5.56
2023-02-12T02:11:15.295Z,5.33
2023-02-12T02:15:10.327Z,5.26
2023-02-12T02:19:03.275Z,4.93
2023-02-12T02:23:08.051Z,4.90
2023-02-12T02:27:15.772Z,4.82
2023-02-12T02:31:35.812Z,4.74
2023-02-12T02:35:32.578Z,4.92
2023-02-12T02:40:04.790Z,5.32
2023-02-12T02:44:17.482Z,5.25
2023-02-12T02:48:14.954Z,5.06
2023-02-12T02:52:24.579Z,5.14
2023-02-12T02:56:34.052Z,5.05
2023-02-12T03:00:44.021Z,5.04
2023-02-12T03:04:36.705Z,5.12
2023-02-12T03:08:40.966Z,5.12
2023-02-12T03:12:38.362Z,5.12
2023-02-12T03:16:50.735Z,5.09
2023-02-12T03:21:00.268Z,5.05
2023-02-12T03:25:12.928Z,5.25
2023-02-12T03:29:07.185Z,5.36
2023-02-12T03:33:14.203Z,5.49
2023-02-12T03:37:21.490Z,5.48
2023-02-12T03:41:26.313Z,5.58
2023-02-12T03:45:36.300Z,5.45
2023-02-12T03:49:43.010Z,5.52
2023-02-12T03:53:35.958Z,5.59
2023-02-12T03:57:51.816Z,5.56
2023-02-12T04:02:01.204Z,5.34
2023-02-12T04:06:18.399Z,5.37
2023-02-12T04:10:29.514Z,5.60
2023-02-12T04:15:03.040Z,5.48
2023-02-12T04:19:05.994Z,5.63
2023-02-12T04:29:23.899Z,5.74
2023-02-12T04:33:36.098Z,5.64
2023-02-12T04:37:26.426Z,5.73
2023-02-12T04:41:17.354Z,5.80
2023-02-12T04:45:16.154Z,5.73
2023-02-12T04:49:35.170Z,5.81
2023-02-12T04:53:24.315Z,5.94
2023-02-12T04:57:21.719Z,5.89
2023-02-12T05:01:20.201Z,5.94
2023-02-12T05:05:32.907Z,5.85
2023-02-12T05:09:26.698Z,5.65
2023-02-12T05:13:41.539Z,5.61
2023-02-12T05:17:36.825Z,5.80
2023-02-12T05:21:46.263Z,5.83
2023-02-12T05:25:39.608Z,5.72
2023-02-12T05:29:35.675Z,5.67
2023-02-12T05:33:26.380Z,5.71
2023-02-12T05:37:18.736Z,5.80
2023-02-12T05:41:09.381Z,5.64
2023-02-12T05:45:19.194Z,5.65
2023-02-12T05:49:44.794Z,5.62
2023-02-12T05:53:36.266Z,5.70
2023-02-12T05:57:27.151Z,5.62
2023-02-12T06:01:16.857Z,5.64
2023-02-12T06:05:27.074Z,5.65
2023-02-12T06:09:17.480Z,5.70
2023-02-12T06:13:08.021Z,5.76
2023-02-12T06:17:00.458Z,5.72
2023-02-12T06:20:53.789Z,5.78
2023-02-12T06:24:45.436Z,5.70
2023-02-12T06:28:37.162Z,5.61
2023-02-12T06:32:47.245Z,5.55
2023-02-12T06:36:37.354Z,5.57
2023-02-12T06:40:48.394Z,5.91
2023-02-12T06:44:58.225Z,6.06
2023-02-12T06:49:07.761Z,6.24
2023-02-12T06:53:17.308Z,6.36
2023-02-12T06:57:26.878Z,6.45
2023-02-12T07:01:18.191Z,6.52
2023-02-12T07:05:28.570Z,6.62
2023-02-12T07:09:16.367Z,6.51
2023-02-12T07:13:11.131Z,6.49
2023-02-12T07:17:08.164Z,6.65
2023-02-12T07:21:17.641Z,6.61
2023-02-12T07:25:07.648Z,6.44
2023-02-12T07:29:18.697Z,6.26
2023-02-12T07:33:16.875Z,6.17
2023-02-12T07:37:09.845Z,6.20
2023-02-12T07:41:04.170Z,6.12
2023-02-12T07:45:04.087Z,5.98
2023-02-12T07:49:13.737Z,5.96
2023-02-12T07:53:08.334Z,6.15
2023-02-12T07:57:06.042Z,6.25
2023-02-12T08:00:57.008Z,5.85
2023-02-12T08:05:06.347Z,5.79
2023-02-12T08:09:16.186Z,5.46
2023-02-12T08:13:25.041Z,5.56
2023-02-12T08:17:16.915Z,5.70
2023-02-12T08:21:10.042Z,5.97
2023-02-12T08:25:21.503Z,6.16
2023-02-12T08:29:14.394Z,6.08
2023-02-12T08:33:04.746Z,5.98
2023-02-12T08:37:17.161Z,5.92
2023-02-12T08:41:47.649Z,5.91
2023-02-12T08:45:47.241Z,5.84
2023-02-12T08:49:40.082Z,5.80
2023-02-12T08:53:52.893Z,5.76
2023-02-12T08:57:46.092Z,5.78
2023-02-12T09:01:37.635Z,5.61
2023-02-12T09:05:30.589Z,5.66
2023-02-12T09:09:50.978Z,5.86
2023-02-12T09:13:45.085Z,6.05
2023-02-12T09:17:56.272Z,6.27
2023-02-12T09:22:06.426Z,6.31
2023-02-12T09:25:58.310Z,6.59
2023-02-12T09:30:10.050Z,6.61
2023-02-12T09:33:59.852Z,6.67
2023-02-12T09:38:10.273Z,6.78
2023-02-12T09:42:18.596Z,7.06
2023-02-12T09:46:28.609Z,7.20
2023-02-12T09:50:30.518Z,7.36
2023-02-12T09:54:21.846Z,7.49
2023-02-12T09:58:33.288Z,7.56
2023-02-12T10:02:25.122Z,7.56
2023-02-12T10:06:19.159Z,7.56
2023-02-12T10:10:29.984Z,7.58
2023-02-12T10:14:57.929Z,7.37
2023-02-12T10:19:25.393Z,7.22
2023-02-12T10:23:49.255Z,7.18
2023-02-12T10:27:43.451Z,7.24
2023-02-12T10:31:39.006Z,7.06
2023-02-12T10:36:17.490Z,7.12
2023-02-12T10:40:50.896Z,7.32
2023-02-12T10:44:43.573Z,7.53
2023-02-12T10:49:08.443Z,7.62
2023-02-12T10:53:20.711Z,7.70
2023-02-12T10:57:13.885Z,7.74
2023-02-12T11:01:17.473Z,7.74
2023-02-12T11:05:19.515Z,7.84
2023-02-12T11:09:48.146Z,7.57
2023-02-12T11:13:42.963Z,7.57
2023-02-12T11:17:34.209Z,7.28
2023-02-12T11:22:10.543Z,7.24
2023-02-12T11:26:11.823Z,7.11
2023-02-12T11:30:45.028Z,7.24
2023-02-12T11:35:12.512Z,7.11
2023-02-12T11:39:07.101Z,7.25
2023-02-12T11:43:06.051Z,7.41
2023-02-12T11:47:20.371Z,7.53
2023-02-12T11:51:29.158Z,7.61
2023-02-12T11:55:19.062Z,7.80
2023-02-12T11:59:33.315Z,7.89
2023-02-12T12:03:46.186Z,7.93
2023-02-12T12:07:58.760Z,8.10
2023-02-12T12:12:23.846Z,8.11
2023-02-12T12:16:32.231Z,8.09
2023-02-12T12:21:07.193Z,8.07
2023-02-12T12:25:11.601Z,8.17
2023-02-12T12:29:12.946Z,8.21
2023-02-12T12:33:16.575Z,8.28
2023-02-12T12:37:28.941Z,8.19
2023-02-12T12:41:30.416Z,8.27
2023-02-12T12:46:03.768Z,8.12
2023-02-12T12:50:39.454Z,8.15
2023-02-12T12:54:57.456Z,8.22
2023-02-12T12:59:27.919Z,8.27
2023-02-12T13:03:38.522Z,8.34
2023-02-12T13:08:06.244Z,8.36
2023-02-12T13:12:21.608Z,8.37
2023-02-12T13:16:35.359Z,8.46
2023-02-12T13:20:46.582Z,8.35
2023-02-12T13:24:44.972Z,8.19
2023-02-12T13:29:10.919Z,8.13
2023-02-12T13:33:07.352Z,8.11
2023-02-12T13:37:38.097Z,8.08
2023-02-12T13:42:05.664Z,8.62
2023-02-12T13:46:22.009Z,8.33
2023-02-12T13:50:45.100Z,8.27
2023-02-12T13:55:01.877Z,8.19
2023-02-12T13:59:22.751Z,8.25
2023-02-12T14:03:27.401Z,8.05
2023-02-12T14:07:47.803Z,7.96
2023-02-12T14:11:49.356Z,7.91
2023-02-12T14:15:48.253Z,7.64
2023-02-12T14:19:40.126Z,7.55
2023-02-12T14:23:34.061Z,7.63
2023-02-12T14:27:26.913Z,7.77
2023-02-12T14:32:02.061Z,7.74
2023-02-12T14:35:52.724Z,7.89
2023-02-12T14:40:04.069Z,7.88
2023-02-12T14:44:24.296Z,7.88
2023-02-12T14:48:35.596Z,7.82
2023-02-12T14:52:59.875Z,7.94
2023-02-12T14:57:11.798Z,8.01
2023-02-12T15:01:41.729Z,8.00
2023-02-12T15:05:59.926Z,8.01
2023-02-12T15:10:18.203Z,7.82
2023-02-12T15:14:08.931Z,7.66
2023-02-12T15:18:22.100Z,7.59
2023-02-12T15:22:32.624Z,7.66
2023-02-12T15:26:42.397Z,7.57
2023-02-12T15:30:45.513Z,7.51
2023-02-12T15:35:04.021Z,7.37
2023-02-12T15:39:20.329Z,7.29
2023-02-12T15:43:36.720Z,7.20
2023-02-12T15:47:58.960Z,7.13
2023-02-12T15:56:30.971Z,7.30
2023-02-12T16:00:41.911Z,7.29
2023-02-12T16:04:34.155Z,7.23
2023-02-12T16:08:44.783Z,7.28
2023-02-12T16:12:55.382Z,7.33
2023-02-12T16:17:04.402Z,7.31
2023-02-12T16:21:47.646Z,7.31
2023-02-12T16:25:58.359Z,7.28
2023-02-12T16:30:08.947Z,7.38
2023-02-12T16:34:31.474Z,7.29
2023-02-12T16:38:58.635Z,7.16
2023-02-12T16:43:07.008Z,7.19
2023-02-12T16:47:04.549Z,7.26
2023-02-12T16:51:17.642Z,7.24
2023-02-12T16:55:28.439Z,7.24
2023-02-12T16:59:42.436Z,7.22
2023-02-12T17:03:48.900Z,7.11
2023-02-12T17:07:38.962Z,7.04
2023-02-12T17:11:36.678Z,6.96
2023-02-12T17:15:28.702Z,6.96
2023-02-12T17:19:39.702Z,7.02
2023-02-12T17:23:31.614Z,7.13
2023-02-12T17:27:28.591Z,7.06
2023-02-12T17:31:39.063Z,6.95
2023-02-12T17:35:40.720Z,6.87
2023-02-12T17:40:10.240Z,6.99
2023-02-12T17:43:59.949Z,6.97
2023-02-12T17:47:50.233Z,6.84
2023-02-12T17:51:41.207Z,6.79
2023-02-12T17:55:33.772Z,6.75
2023-02-12T17:59:43.948Z,6.70
2023-02-12T18:03:37.485Z,6.65
2023-02-12T18:07:47.252Z,6.68
2023-02-12T18:11:40.632Z,6.71
2023-02-12T18:15:36.413Z,6.60
2023-02-12T18:20:02.556Z,6.55
2023-02-12T18:24:12.495Z,6.56
2023-02-12T18:28:24.124Z,6.48
2023-02-12T18:32:16.050Z,6.49
2023-02-12T18:36:38.259Z,6.61
2023-02-12T18:40:33.339Z,6.62
2023-02-12T18:44:29.860Z,6.61
2023-02-12T18:48:42.266Z,6.70
2023-02-12T18:52:50.511Z,6.54
2023-02-12T18:57:20.545Z,6.52
2023-02-12T19:01:31.407Z,6.57
2023-02-12T19:05:46.987Z,6.55
2023-02-12T19:09:41.174Z,6.38
2023-02-12T19:14:11.602Z,6.48
2023-02-12T19:18:04.306Z,6.54
2023-02-12T19:22:13.702Z,6.51
2023-02-12T19:34:10.665Z,6.51
2023-02-12T19:38:22.500Z,6.31
2023-02-12T19:42:27.002Z,6.24
2023-02-12T19:46:48.782Z,6.36
2023-02-12T19:55:18.090Z,6.43
2023-02-12T19:59:09.748Z,6.45
2023-02-12T20:03:20.878Z,6.55
2023-02-12T20:07:22.311Z,6.62
2023-02-12T20:11:28.863Z,6.62
2023-02-12T20:15:23.328Z,6.54
2023-02-12T20:19:14.108Z,6.56
2023-02-12T20:29:36.181Z,6.62
2023-02-12T20:33:33.093Z,6.45
2023-02-12T20:37:41.042Z,6.54
2023-02-12T20:41:50.377Z,6.44
2023-02-12T20:50:08.967Z,6.38
2023-02-12T20:54:21.540Z,6.42
2023-02-12T20:58:49.405Z,6.38
2023-02-12T21:03:07.111Z,6.41
2023-02-12T21:07:15.909Z,6.41
2023-02-12T21:11:26.632Z,6.56
2023-02-12T21:15:28.553Z,6.98
2023-02-12T21:19:22.002Z,7.02
2023-02-12T21:27:34.345Z,7.10
2023-02-12T21:32:11.925Z,7.02
2023-02-12T21:36:46.632Z,7.08
2023-02-12T21:41:15.377Z,6.52
2023-02-12T21:45:46.547Z,6.48
2023-02-12T21:50:17.031Z,6.43
2023-02-12T21:54:49.266Z,6.47
2023-02-12T21:59:16.553Z,6.42
2023-02-12T22:03:45.753Z,6.49
2023-02-12T22:08:14.003Z,6.32
2023-02-12T22:12:43.013Z,6.31
2023-02-12T22:17:15.325Z,6.34
2023-02-12T22:21:44.082Z,6.40
2023-02-12T22:26:12.129Z,6.39
2023-02-12T22:30:40.289Z,6.47
2023-02-12T22:35:08.688Z,6.40
2023-02-12T22:39:37.431Z,6.40
2023-02-12T22:44:05.842Z,6.35
2023-02-12T22:48:37.099Z,6.26
2023-02-12T22:53:06.804Z,6.18
2023-02-12T22:57:35.729Z,6.21
2023-02-12T23:02:06.602Z,6.20
2023-02-12T23:06:38.344Z,6.22
2023-02-12T23:11:08.378Z,6.26
2023-02-12T23:15:35.076Z,6.26
2023-02-12T23:20:03.940Z,6.33
2023-02-12T23:24:32.962Z,6.32
2023-02-12T23:29:02.278Z,6.31
2023-02-12T23:33:30.939Z,6.34
2023-02-12T23:37:59.586Z,6.27
2023-02-12T23:42:28.350Z,6.32
2023-02-12T23:46:56.772Z,6.31
2023-02-12T23:51:24.745Z,6.30
2023-02-12T23:55:52.762Z,6.26
